createdAt,value
2017-08-24T00:02:20.238Z,100743
2017-08-24T00:04:48.355Z,100739
2017-08-24T00:07:16.463Z,100738
2017-08-24T00:09:44.574Z,100741
2017-08-24T00:12:12.743Z,100743
2017-08-24T00:14:40.830Z,100736
2017-08-24T00:17:09.250Z,100737
2017-08-24T00:19:37.380Z,100748
2017-08-24T00:22:05.600Z,100745
2017-08-24T00:24:33.697Z,100745
2017-08-24T00:27:01.819Z,100753
2017-08-24T00:29:30.801Z,100748
2017-08-24T00:31:59.042Z,100750
2017-08-24T00:34:27.139Z,100757
2017-08-24T00:36:55.230Z,100751
2017-08-24T00:39:23.992Z,100758
2017-08-24T00:41:52.123Z,100744
2017-08-24T00:44:21.144Z,100754
2017-08-24T00:46:50.143Z,100750
2017-08-24T00:49:18.266Z,100742
2017-08-24T00:51:46.533Z,100743
2017-08-24T00:54:14.663Z,100743
2017-08-24T00:56:42.794Z,100746
2017-08-24T00:59:10.903Z,100739
2017-08-24T01:01:39.500Z,100740
2017-08-24T01:04:09.591Z,100733
2017-08-24T01:06:37.716Z,100740
2017-08-24T01:09:05.822Z,100735
2017-08-24T01:11:33.920Z,100735
2017-08-24T01:14:02.020Z,100734
2017-08-24T01:16:30.139Z,100731
2017-08-24T01:18:59.153Z,100739
2017-08-24T01:21:27.617Z,100738
2017-08-24T01:23:55.999Z,100740
2017-08-24T01:26:24.179Z,100740
2017-08-24T01:28:52.269Z,100736
2017-08-24T01:31:22.293Z,100745
2017-08-24T01:33:50.446Z,100750
2017-08-24T01:36:18.532Z,100750
2017-08-24T01:38:46.628Z,100747
2017-08-24T01:41:14.741Z,100747
2017-08-24T01:43:43.741Z,100749
2017-08-24T01:46:12.502Z,100754
2017-08-24T01:48:40.619Z,100753
2017-08-24T01:51:08.744Z,100752
2017-08-24T01:53:36.868Z,100755
2017-08-24T01:56:05.009Z,100736
2017-08-24T01:58:33.104Z,100741
2017-08-24T02:01:02.144Z,100758
2017-08-24T02:03:30.240Z,100750
2017-08-24T02:05:58.356Z,100745
2017-08-24T02:08:26.479Z,100758
2017-08-24T02:10:54.590Z,100745
2017-08-24T02:13:22.711Z,100751
2017-08-24T02:15:50.831Z,100747
2017-08-24T02:18:18.916Z,100754
2017-08-24T02:20:47.012Z,100764
2017-08-24T02:23:15.125Z,100761
2017-08-24T02:25:43.218Z,100771
2017-08-24T02:28:11.300Z,100767
2017-08-24T02:30:40.316Z,100785
2017-08-24T02:33:08.423Z,100770
2017-08-24T02:35:36.530Z,100777
2017-08-24T02:38:04.603Z,100779
2017-08-24T02:40:32.699Z,100775
2017-08-24T02:43:01.706Z,100780
2017-08-24T02:45:29.787Z,100784
2017-08-24T02:47:57.896Z,100783
2017-08-24T02:50:26.003Z,100790
2017-08-24T02:52:54.103Z,100785
2017-08-24T02:55:22.191Z,100790
2017-08-24T02:57:51.208Z,100799
2017-08-24T03:00:19.298Z,100795
2017-08-24T03:02:47.411Z,100806
2017-08-24T03:05:15.503Z,100807
2017-08-24T03:07:45.301Z,100809
2017-08-24T03:10:13.408Z,100796
2017-08-24T03:12:41.492Z,100799
2017-08-24T03:15:09.616Z,100799
2017-08-24T03:17:37.724Z,100803
2017-08-24T03:20:05.828Z,100818
2017-08-24T03:22:33.932Z,100808
2017-08-24T03:25:02.076Z,100808
2017-08-24T03:27:30.184Z,100813
2017-08-24T03:29:58.288Z,100821
2017-08-24T03:32:27.326Z,100823
2017-08-24T03:34:56.343Z,100817
2017-08-24T03:37:24.456Z,100816
2017-08-24T03:39:52.573Z,100816
2017-08-24T03:42:20.684Z,100826
2017-08-24T03:44:48.779Z,100819
2017-08-24T03:47:16.870Z,100827
2017-08-24T03:49:44.960Z,100828
2017-08-24T03:52:13.952Z,100827
2017-08-24T03:54:42.055Z,100831
2017-08-24T03:57:10.135Z,100824
2017-08-24T03:59:38.217Z,100830
2017-08-24T04:02:06.312Z,100834
2017-08-24T04:04:34.408Z,100832
2017-08-24T04:07:02.500Z,100834
2017-08-24T04:09:30.600Z,100837
2017-08-24T04:11:58.722Z,100838
2017-08-24T04:14:26.804Z,100844
2017-08-24T04:16:54.887Z,100844
2017-08-24T04:19:24.056Z,100832
2017-08-24T04:21:52.131Z,100839
2017-08-24T04:24:20.232Z,100845
2017-08-24T04:26:49.223Z,100848
2017-08-24T04:29:18.232Z,100844
2017-08-24T04:31:46.325Z,100853
2017-08-24T04:34:14.406Z,100858
2017-08-24T04:36:42.503Z,100856
2017-08-24T04:39:10.596Z,100849
2017-08-24T04:41:39.629Z,100863
2017-08-24T04:44:07.710Z,100874
2017-08-24T04:46:35.783Z,100881
2017-08-24T04:49:03.888Z,100883
2017-08-24T04:51:31.968Z,100891
2017-08-24T04:54:00.071Z,100888
2017-08-24T04:56:28.150Z,100883
2017-08-24T04:58:56.246Z,100882
2017-08-24T05:01:24.327Z,100887
2017-08-24T05:03:52.460Z,100886
2017-08-24T05:06:20.560Z,100877
2017-08-24T05:08:48.631Z,100879
2017-08-24T05:11:16.706Z,100873
2017-08-24T05:13:44.806Z,100885
2017-08-24T05:16:12.907Z,100890
2017-08-24T05:18:41.004Z,100881
2017-08-24T05:21:09.120Z,100884
2017-08-24T05:23:37.190Z,100883
2017-08-24T05:26:05.299Z,100892
2017-08-24T05:28:33.403Z,100895
2017-08-24T05:31:01.502Z,100891
2017-08-24T05:33:29.575Z,100889
2017-08-24T05:35:57.687Z,100889
2017-08-24T05:38:25.767Z,100885
2017-08-24T05:40:53.869Z,100888
2017-08-24T05:43:21.944Z,100887
2017-08-24T05:45:51.035Z,100892
2017-08-24T05:48:19.167Z,100891
2017-08-24T05:50:47.251Z,100898
2017-08-24T05:53:15.366Z,100898
2017-08-24T05:55:43.502Z,100909
2017-08-24T05:58:11.585Z,100897
2017-08-24T06:00:40.607Z,100906
2017-08-24T06:03:08.733Z,100914
2017-08-24T06:05:36.828Z,100905
2017-08-24T06:08:04.935Z,100912
2017-08-24T06:10:33.040Z,100901
2017-08-24T06:13:01.130Z,100914
2017-08-24T06:15:30.163Z,100922
2017-08-24T06:17:59.204Z,100928
2017-08-24T06:20:27.277Z,100924
2017-08-24T06:22:55.382Z,100930
2017-08-24T06:25:23.467Z,100939
2017-08-24T06:27:51.536Z,100921
2017-08-24T06:30:19.648Z,100917
2017-08-24T06:32:47.732Z,100917
2017-08-24T06:35:15.827Z,100923
2017-08-24T06:37:43.913Z,100923
2017-08-24T06:40:12.031Z,100930
2017-08-24T06:42:40.134Z,100930
2017-08-24T06:45:08.222Z,100927
2017-08-24T06:47:36.319Z,100930
2017-08-24T06:50:04.456Z,100923
2017-08-24T06:52:32.575Z,100926
2017-08-24T06:55:00.665Z,100923
2017-08-24T06:57:28.780Z,100921
2017-08-24T06:59:57.792Z,100933
2017-08-24T07:02:25.904Z,100929
2017-08-24T07:04:54.004Z,100929
2017-08-24T07:07:22.089Z,100927
2017-08-24T07:09:51.091Z,100928
2017-08-24T07:12:19.183Z,100928
2017-08-24T07:14:47.286Z,100932
2017-08-24T07:17:15.388Z,100938
2017-08-24T07:19:43.464Z,100934
2017-08-24T07:22:11.576Z,100936
2017-08-24T07:24:39.670Z,100934
2017-08-24T07:27:07.775Z,100941
2017-08-24T07:29:35.860Z,100939
2017-08-24T07:32:03.967Z,100935
2017-08-24T07:34:32.056Z,100942
2017-08-24T07:37:00.159Z,100944
2017-08-24T07:39:28.268Z,100953
2017-08-24T07:41:56.372Z,100949
2017-08-24T07:44:24.476Z,100954
2017-08-24T07:46:52.562Z,100946
2017-08-24T07:49:20.663Z,100945
2017-08-24T07:51:49.658Z,100940
2017-08-24T07:54:18.666Z,100958
2017-08-24T07:56:46.784Z,100961
2017-08-24T07:59:14.897Z,100962
2017-08-24T08:01:43.007Z,100970
2017-08-24T08:04:11.093Z,100962
2017-08-24T08:06:40.135Z,100973
2017-08-24T08:09:08.233Z,100973
2017-08-24T08:11:36.319Z,100969
2017-08-24T08:14:04.427Z,100977
2017-08-24T08:16:32.498Z,100978
2017-08-24T08:19:00.587Z,100971
2017-08-24T08:21:28.687Z,100969
2017-08-24T08:23:56.779Z,100984
2017-08-24T08:26:24.888Z,100984
2017-08-24T08:28:52.979Z,100987
2017-08-24T08:31:22.047Z,100982
2017-08-24T08:33:50.143Z,100985
2017-08-24T08:36:18.245Z,100991
2017-08-24T08:38:46.328Z,100989
2017-08-24T08:41:14.447Z,100997
2017-08-24T08:43:42.546Z,100989
2017-08-24T08:46:10.639Z,100992
2017-08-24T08:48:38.736Z,100990
2017-08-24T08:51:06.826Z,100999
2017-08-24T08:53:34.920Z,101001
2017-08-24T08:56:04.923Z,100998
2017-08-24T08:58:33.007Z,101005
2017-08-24T09:01:01.151Z,100996
2017-08-24T09:03:29.246Z,101004
2017-08-24T09:05:58.271Z,101008
2017-08-24T09:08:26.342Z,101011
2017-08-24T09:10:54.442Z,101019
2017-08-24T09:13:22.522Z,101015
2017-08-24T09:15:50.640Z,101015
2017-08-24T09:18:19.655Z,101016
2017-08-24T09:20:47.732Z,101011
2017-08-24T09:23:15.844Z,101009
2017-08-24T09:25:43.928Z,101016
2017-08-24T09:28:12.036Z,101010
2017-08-24T09:30:40.115Z,101018
2017-08-24T09:33:08.204Z,101011
2017-08-24T09:35:36.307Z,101013
2017-08-24T09:38:04.394Z,101024
2017-08-24T09:40:33.400Z,101021
2017-08-24T09:43:01.506Z,101014
2017-08-24T09:45:29.607Z,101018
2017-08-24T09:47:57.731Z,101018
2017-08-24T09:50:25.811Z,101010
2017-08-24T09:52:53.945Z,101012
2017-08-24T09:55:22.036Z,101015
2017-08-24T09:57:50.164Z,101010
2017-08-24T10:00:18.251Z,101015
2017-08-24T10:02:46.344Z,101017
2017-08-24T10:05:14.452Z,101010
2017-08-24T10:07:42.537Z,101004
2017-08-24T10:10:10.607Z,101013
2017-08-24T10:12:38.748Z,101020
2017-08-24T10:15:06.849Z,101020
2017-08-24T10:17:34.937Z,101019
2017-08-24T10:20:03.041Z,101014
2017-08-24T10:22:32.042Z,101031
2017-08-24T10:25:01.058Z,101025
2017-08-24T10:27:30.058Z,101020
2017-08-24T10:29:58.204Z,101018
2017-08-24T10:32:26.242Z,101021
2017-08-24T10:34:54.330Z,101016
2017-08-24T10:37:22.516Z,101021
2017-08-24T10:39:50.663Z,101009
2017-08-24T10:42:18.772Z,101010
2017-08-24T10:44:46.882Z,101015
2017-08-24T10:47:14.995Z,101023
2017-08-24T10:49:43.074Z,101017
2017-08-24T10:52:11.976Z,101020
2017-08-24T10:54:40.074Z,101017
2017-08-24T10:57:08.184Z,101021
2017-08-24T10:59:36.283Z,101022
2017-08-24T11:02:04.372Z,101017
2017-08-24T11:04:32.515Z,101020
2017-08-24T11:07:00.589Z,101024
2017-08-24T11:09:28.683Z,101023
2017-08-24T11:11:58.702Z,101022
2017-08-24T11:14:26.792Z,101021
2017-08-24T11:16:54.929Z,101008
2017-08-24T11:19:23.048Z,101014
2017-08-24T11:21:51.165Z,101009
2017-08-24T11:24:19.256Z,101012
2017-08-24T11:26:47.347Z,101011
2017-08-24T11:29:15.429Z,101018
2017-08-24T11:31:43.535Z,101018
2017-08-24T11:34:11.616Z,101013
2017-08-24T11:36:39.714Z,101025
2017-08-24T11:39:07.799Z,101015
2017-08-24T11:41:35.868Z,101023
2017-08-24T11:44:03.975Z,101020
2017-08-24T11:46:32.106Z,101025
2017-08-24T11:49:00.147Z,101017
2017-08-24T11:51:28.248Z,101021
2017-08-24T11:53:56.367Z,101018
2017-08-24T11:56:24.488Z,101029
2017-08-24T11:58:52.583Z,101019
2017-08-24T12:01:20.680Z,101018
2017-08-24T12:03:48.787Z,101016
2017-08-24T12:06:16.874Z,101022
2017-08-24T12:08:44.947Z,101014
2017-08-24T12:11:13.047Z,101018
2017-08-24T12:13:41.135Z,101021
2017-08-24T12:16:09.232Z,101014
2017-08-24T12:18:38.210Z,101009
2017-08-24T12:21:06.323Z,101025
2017-08-24T12:23:34.404Z,101012
2017-08-24T12:26:03.396Z,101018
2017-08-24T12:28:31.498Z,101015
2017-08-24T12:30:59.581Z,101031
2017-08-24T12:33:27.690Z,101025
2017-08-24T12:35:55.771Z,101031
2017-08-24T12:38:24.784Z,101026
2017-08-24T12:40:52.887Z,101025
2017-08-24T12:43:20.959Z,101028
2017-08-24T12:45:49.068Z,101025
2017-08-24T12:48:17.159Z,101027
2017-08-24T12:50:45.249Z,101031
2017-08-24T12:53:13.326Z,101028
2017-08-24T12:55:41.664Z,101025
2017-08-24T12:58:09.751Z,101028
2017-08-24T13:00:37.849Z,101022
2017-08-24T13:03:05.955Z,101033
2017-08-24T13:05:34.032Z,101034
2017-08-24T13:08:03.043Z,101033
2017-08-24T13:10:31.138Z,101028
2017-08-24T13:12:59.207Z,101024
2017-08-24T13:15:27.329Z,101029
2017-08-24T13:17:55.428Z,101026
2017-08-24T13:20:23.523Z,101033
2017-08-24T13:22:51.644Z,101019
2017-08-24T13:25:19.732Z,101024
2017-08-24T13:30:28.374Z,101027
2017-08-24T13:32:56.474Z,101022
2017-08-24T13:35:24.554Z,101013
2017-08-24T13:37:52.651Z,101033
2017-08-24T13:40:23.663Z,101016
2017-08-24T13:42:51.762Z,101010
2017-08-24T13:45:20.112Z,101009
2017-08-24T13:47:48.210Z,101017
2017-08-24T13:50:16.283Z,101014
2017-08-24T13:52:44.385Z,101018
2017-08-24T13:55:13.383Z,101027
2017-08-24T13:57:41.484Z,101023
2017-08-24T14:00:09.559Z,101025
2017-08-24T14:02:37.655Z,101029
2017-08-24T14:05:05.763Z,101031
2017-08-24T14:07:33.846Z,101024
2017-08-24T14:10:01.972Z,101021
2017-08-24T14:12:30.092Z,101018
2017-08-24T14:14:58.189Z,101013
2017-08-24T14:17:26.303Z,101016
2017-08-24T14:19:54.404Z,101022
2017-08-24T14:22:22.515Z,101016
2017-08-24T14:24:50.588Z,101017
2017-08-24T14:27:18.698Z,101011
2017-08-24T14:29:46.768Z,101018
2017-08-24T14:32:15.768Z,101016
2017-08-24T14:34:44.772Z,101021
2017-08-24T14:37:12.859Z,101028
2017-08-24T14:39:40.944Z,101022
2017-08-24T14:42:09.052Z,101030
2017-08-24T14:44:37.131Z,101023
2017-08-24T14:47:05.242Z,101024
2017-08-24T14:49:33.316Z,101020
2017-08-24T14:52:01.467Z,101028
2017-08-24T14:54:30.449Z,101026
2017-08-24T14:56:58.542Z,101019
2017-08-24T14:59:26.643Z,101020
2017-08-24T15:01:54.728Z,101019
2017-08-24T15:04:22.831Z,101020
2017-08-24T15:06:50.919Z,101029
2017-08-24T15:09:19.019Z,101028
2017-08-24T15:11:48.043Z,101021
2017-08-24T15:14:16.147Z,101016
2017-08-24T15:16:44.240Z,101025
2017-08-24T15:19:12.337Z,101025
2017-08-24T15:21:40.439Z,101028
2017-08-24T15:24:08.527Z,101025
2017-08-24T15:26:36.644Z,101030
2017-08-24T15:29:04.734Z,101025
2017-08-24T15:31:32.838Z,101034
2017-08-24T15:34:00.961Z,101025
2017-08-24T15:36:29.042Z,101031
2017-08-24T15:38:57.171Z,101030
2017-08-24T15:41:25.288Z,101035
2017-08-24T15:43:53.391Z,101031
2017-08-24T15:46:21.486Z,101036
2017-08-24T15:48:49.577Z,101033
2017-08-24T15:51:17.700Z,101037
2017-08-24T15:53:46.707Z,101038
2017-08-24T15:56:14.802Z,101029
2017-08-24T15:58:42.917Z,101033
2017-08-24T16:01:11.023Z,101045
2017-08-24T16:03:39.130Z,101046
2017-08-24T16:06:08.144Z,101044
2017-08-24T16:08:37.166Z,101038
2017-08-24T16:11:06.200Z,101031
2017-08-24T16:13:34.275Z,101041
2017-08-24T16:16:02.374Z,101037
2017-08-24T16:18:30.454Z,101037
2017-08-24T16:20:58.569Z,101020
2017-08-24T16:23:26.675Z,101026
2017-08-24T16:25:54.748Z,101021
2017-08-24T16:28:22.878Z,101024
2017-08-24T16:30:50.986Z,101025
2017-08-24T16:33:25.791Z,101030
2017-08-24T16:36:05.327Z,101031
2017-08-24T16:38:37.205Z,101030
2017-08-24T16:41:05.276Z,101029
2017-08-24T16:43:33.373Z,101030
2017-08-24T16:46:01.472Z,101034
2017-08-24T16:48:29.553Z,101030
2017-08-24T16:50:57.658Z,101035
2017-08-24T16:53:25.736Z,101034
2017-08-24T16:55:53.852Z,101036
2017-08-24T16:58:25.841Z,101029
2017-08-24T17:00:54.005Z,101032
2017-08-24T17:03:22.118Z,101031
2017-08-24T17:05:50.242Z,101038
2017-08-24T17:08:18.368Z,101038
2017-08-24T17:10:47.443Z,101039
2017-08-24T17:13:16.438Z,101021
2017-08-24T17:15:44.543Z,101040
2017-08-24T17:18:12.765Z,101035
2017-08-24T17:20:41.097Z,101030
2017-08-24T17:23:09.225Z,101020
2017-08-24T17:25:37.339Z,101027
2017-08-24T17:28:05.424Z,101035
2017-08-24T17:30:33.783Z,101040
2017-08-24T17:33:05.844Z,101034
2017-08-24T17:35:35.549Z,101043
2017-08-24T17:38:20.265Z,100987
2017-08-24T17:43:03.387Z,101041
2017-08-24T17:45:31.495Z,101045
2017-08-24T17:47:59.591Z,101033
2017-08-24T17:50:27.675Z,101037
2017-08-24T17:52:55.794Z,101036
2017-08-24T17:55:23.877Z,101039
2017-08-24T17:57:52.843Z,101035
2017-08-24T18:00:20.940Z,101050
2017-08-24T18:02:49.061Z,101042
2017-08-24T18:05:17.137Z,101035
2017-08-24T18:07:45.232Z,101030
2017-08-24T18:10:13.327Z,101038
2017-08-24T18:12:41.421Z,101034
2017-08-24T18:15:11.419Z,101042
2017-08-24T18:17:39.508Z,101047
2017-08-24T18:20:07.601Z,101050
2017-08-24T18:22:35.738Z,101049
2017-08-24T18:25:03.815Z,101043
2017-08-24T18:27:31.916Z,101029
2017-08-24T18:30:00.001Z,101052
2017-08-24T18:32:28.117Z,101052
2017-08-24T18:34:56.206Z,101048
2017-08-24T18:37:24.307Z,101058
2017-08-24T18:39:52.408Z,101048
2017-08-24T18:42:20.505Z,101051
2017-08-24T18:44:50.221Z,101051
2017-08-24T18:47:18.328Z,101060
2017-08-24T18:49:46.413Z,101055
2017-08-24T18:52:14.510Z,101046
2017-08-24T18:54:42.910Z,101065
2017-08-24T18:57:10.999Z,101060
2017-08-24T18:59:39.080Z,101063
2017-08-24T19:02:07.198Z,101063
2017-08-24T19:04:35.304Z,101067
2017-08-24T19:07:04.110Z,101063
2017-08-24T19:09:32.204Z,101066
2017-08-24T19:12:00.321Z,101075
2017-08-24T19:14:28.443Z,101067
2017-08-24T19:16:56.519Z,101079
2017-08-24T19:19:24.615Z,101080
2017-08-24T19:21:52.686Z,101076
2017-08-24T19:24:20.784Z,101072
2017-08-24T19:26:49.796Z,101078
2017-08-24T19:29:17.881Z,101077
2017-08-24T19:31:45.963Z,101079
2017-08-24T19:34:14.071Z,101084
2017-08-24T19:36:42.179Z,101073
2017-08-24T19:39:10.313Z,101076
2017-08-24T19:41:38.416Z,101074
2017-08-24T19:44:07.399Z,101083
2017-08-24T19:46:36.408Z,101081
2017-08-24T19:49:04.488Z,101087
2017-08-24T19:51:32.564Z,101088
2017-08-24T19:54:00.658Z,101088
2017-08-24T19:56:28.730Z,101084
2017-08-24T19:58:56.849Z,101089
2017-08-24T20:01:24.923Z,101086
2017-08-24T20:03:53.045Z,101075
2017-08-24T20:06:21.125Z,101084
2017-08-24T20:08:49.215Z,101090
2017-08-24T20:11:17.329Z,101094
2017-08-24T20:13:45.404Z,101095
2017-08-24T20:16:13.505Z,101103
2017-08-24T20:18:41.592Z,101105
2017-08-24T20:21:09.692Z,101114
2017-08-24T20:23:37.794Z,101116
2017-08-24T20:26:06.541Z,101113
2017-08-24T20:28:34.622Z,101118
2017-08-24T20:31:02.707Z,101123
2017-08-24T20:33:30.804Z,101130
2017-08-24T20:35:58.891Z,101132
2017-08-24T20:38:26.986Z,101137
2017-08-24T20:40:56.014Z,101128
2017-08-24T20:43:24.110Z,101135
2017-08-24T20:45:52.214Z,101125
2017-08-24T20:48:20.320Z,101139
2017-08-24T20:50:48.953Z,101143
2017-08-24T20:53:17.059Z,101136
2017-08-24T20:55:45.160Z,101140
2017-08-24T20:58:13.260Z,101140
2017-08-24T21:00:41.356Z,101147
2017-08-24T21:03:09.456Z,101147
2017-08-24T21:05:38.457Z,101148
2017-08-24T21:08:06.551Z,101142
2017-08-24T21:10:34.646Z,101136
2017-08-24T21:13:02.729Z,101133
2017-08-24T21:15:30.815Z,101133
2017-08-24T21:17:58.932Z,101143
2017-08-24T21:20:27.614Z,101138
2017-08-24T21:22:56.652Z,101133
2017-08-24T21:25:24.755Z,101129
2017-08-24T21:27:52.868Z,101135
2017-08-24T21:30:20.960Z,101138
2017-08-24T21:32:49.051Z,101142
2017-08-24T21:35:17.149Z,101128
2017-08-24T21:37:46.139Z,101148
2017-08-24T21:40:15.146Z,101128
2017-08-24T21:42:43.239Z,101135
2017-08-24T21:45:11.311Z,101137
2017-08-24T21:47:39.420Z,101146
2017-08-24T21:50:07.497Z,101138
2017-08-24T21:52:35.617Z,101146
2017-08-24T21:55:03.700Z,101144
2017-08-24T21:57:31.776Z,101150
2017-08-24T21:59:59.898Z,101144
2017-08-24T22:02:28.895Z,101154
2017-08-24T22:04:56.975Z,101150
2017-08-24T22:07:25.087Z,101153
2017-08-24T22:09:54.106Z,101138
2017-08-24T22:12:23.104Z,101143
2017-08-24T22:14:51.179Z,101141
2017-08-24T22:17:19.287Z,101140
2017-08-24T22:19:48.315Z,101136
2017-08-24T22:22:16.432Z,101141
2017-08-24T22:24:44.515Z,101135
2017-08-24T22:27:12.617Z,101134
2017-08-24T22:29:40.695Z,101128
2017-08-24T22:32:08.791Z,101131
2017-08-24T22:34:36.878Z,101132
2017-08-24T22:37:04.968Z,101130
2017-08-24T22:39:33.079Z,101134
2017-08-24T22:42:02.081Z,101127
2017-08-24T22:44:30.208Z,101129
2017-08-24T22:46:58.292Z,101130
2017-08-24T22:49:26.393Z,101129
2017-08-24T22:51:54.496Z,101139
2017-08-24T22:54:28.002Z,101141
2017-08-24T23:00:03.779Z,101145
2017-08-24T23:02:37.295Z,101125
2017-08-24T23:05:05.573Z,101144
2017-08-24T23:07:36.909Z,101141
2017-08-24T23:10:05.036Z,101140
2017-08-24T23:12:33.127Z,101142
2017-08-24T23:15:01.247Z,101127
2017-08-24T23:17:29.319Z,101140
2017-08-24T23:19:57.412Z,101135
2017-08-24T23:22:25.516Z,101139
2017-08-24T23:24:53.592Z,101140
2017-08-24T23:27:21.706Z,101137
2017-08-24T23:29:49.794Z,101137
2017-08-24T23:32:18.816Z,101150
2017-08-24T23:34:50.258Z,101144
2017-08-24T23:37:18.352Z,101141
2017-08-24T23:39:46.471Z,101131
2017-08-24T23:42:14.554Z,101138
2017-08-24T23:44:43.588Z,101136
2017-08-24T23:47:11.667Z,101130
2017-08-24T23:49:39.743Z,101133
2017-08-24T23:52:07.835Z,101130
2017-08-24T23:54:35.975Z,101136
2017-08-24T23:57:04.974Z,101137
2017-08-24T23:59:33.080Z,101128
